EDAC/ADC METAR and TAF weather

Enter ICAO airport designator
Station Type Date Time Source
EDAC METAR 2020/03/28 20:20 UTC NOAA

EDAC 282020Z AUTO 00000KT 7000 // NCD 04/M01 Q1018


Station Type Date Time Source
EDAC Decoded METAR 2020/03/28 20:20 UTC NOAA

Altenburg Nobitz, Germany (EDAC) 50-58N 012-30E
Mar 28, 2020 - 04:20 PM EDT / 2020.03.28 2020 UTC
Wind: Calm:0
Visibility: 4 mile(s):0
Temperature: 39 F (4 C)
Dew Point: 30 F (-1 C)
Relative Humidity: 69%
Pressure (altimeter): 30.06 in. Hg (1018 hPa)
ob: EDAC 282020Z AUTO 00000KT 7000 // NCD 04/M01 Q1018
cycle: 20

Station Type Date Time Source
EDAC TAF UTC NOAA

Error!

Example: see airport list